• Join FlightAware (Why Join?)
  • Login
  • US Flag 
05:12AM EDT


 

Airport Tracker/Info


-or-


 

Live Flight TrackerFlight Track Log ✈ N43S ✈ 21-Apr-2013 ✈ KCSG - X13

Flight Track Log - Related Links

Times and Time Zones

All times are in EDT time to prevent confusion due to time zone crossing. See the N43S flight status page for this flight to view local times or setup timezone preferences in your user account.

Time Position Orientation Groundspeed Altitude Reporting Facility
EDT Latitude Longitude Course Direction KTS MPH feet Rate Location/Type
08:46AM 32.5167 -84.9667 220° Southwest 96 110 1,800  Level Atlanta TRACON
08:47AM 32.5000 -84.9833 220° Southwest 99 114 2,300 420 Climbing Atlanta TRACON
08:48AM 32.4667 -85.0000 203° Southwest 98 113 2,700 360 Climbing Atlanta TRACON
08:49AM 32.4333 -85.0000 180° South 109 125 3,100 360 Climbing Atlanta TRACON
08:50AM 32.4167 -85.0167 220° Southwest 98 113 3,500 300 Climbing Atlanta TRACON
08:51AM 32.3833 -85.0000 157° South 98 113 3,800 240 Climbing Atlanta TRACON
08:53AM 32.3412 -84.9473 133° Southeast  Level FlightAware Approximate
08:54AM 32.3000 -85.0000 133° Southeast 113 130 4,500  Level Atlanta TRACON
08:55AM 32.2667 -85.0000 180° South 122 140 4,500  Level Atlanta TRACON
08:56AM 32.2333 -85.0167 203° Southwest 129 148 4,500 -60 Level Atlanta TRACON
08:57AM 32.2000 -85.0167 180° South 125 144 4,400 -60 Descending Atlanta TRACON
08:58AM 32.1667 -85.0167 180° South 128 147 4,400  Level Atlanta TRACON
08:59AM 32.1333 -85.0167 180° South 125 144 4,500  Climbing Atlanta TRACON
09:00AM 32.1000 -85.0167 180° South 128 147 4,500  Level Atlanta TRACON
09:01AM 32.0667 -85.0167 180° South 122 140 4,500  Level Atlanta TRACON
09:02AM 32.0317 -85.0197 184° South 125 144 4,600  Climbing Jacksonville Center
09:03AM 32.0003 -85.0264 190° South 125 144 4,500  Descending Jacksonville Center
09:04AM 31.9669 -85.0231 175° South 123 142 4,600  Climbing Jacksonville Center
09:05AM 31.9336 -85.0150 168° South 125 144 4,500  Descending Jacksonville Center
09:06AM 31.9006 -85.0069 168° South 125 144 4,600  Climbing Jacksonville Center
09:06AM 31.8903 -84.9992 147° Southeast 120 138 4,500  Descending Jacksonville Center
09:07AM 31.8653 -84.9939 170° South 125 144 4,600 60 Climbing Jacksonville Center
09:07AM 31.8547 -84.9936 179° South 121 139 4,600  Level Jacksonville Center
09:08AM 31.8319 -84.9906 173° South 125 144 4,600 60 Level Jacksonville Center
09:08AM 31.8236 -84.9881 166° South 120 138 4,700  Climbing Jacksonville Center
09:09AM 31.7986 -84.9825 169° South 125 144 4,600  Descending Jacksonville Center
09:09AM 31.7861 -84.9822 179° South 125 144 4,700 60 Climbing Jacksonville Center
09:10AM 31.7631 -84.9769 169° South 126 145 4,700 -120 Level Jacksonville Center
09:10AM 31.7506 -84.9792 189° South 125 144 4,600  Descending Jacksonville Center
09:11AM 31.7256 -84.9761 174° South 126 145 4,700  Climbing Jacksonville Center
09:11AM 31.7172 -84.9733 164° South 129 148 4,600  Descending Jacksonville Center
09:12AM 31.6922 -84.9656 165° South 126 145 4,700  Climbing Jacksonville Center
09:12AM 31.6778 -84.9653 179° South 126 145 4,600  Descending Jacksonville Center
09:13AM 31.6569 -84.9622 173° South 126 145 4,700 60 Climbing Jacksonville Center
09:13AM 31.6444 -84.9644 189° South 126 145 4,700 60 Level Jacksonville Center
09:14AM 31.6089 -84.9589 172° South 126 145 4,800  Climbing Jacksonville Center
09:15AM 31.5797 -84.9533 171° South 123 142 4,800 -60 Level Jacksonville Center
09:16AM 31.5486 -84.9453 168° South 125 144 4,700 -120 Descending Jacksonville Center
09:17AM 31.5131 -84.9444 179° South 131 151 4,600 -60 Descending Jacksonville Center
09:18AM 31.4778 -84.9436 179° South 132 152 4,600 -60 Level Jacksonville Center
09:19AM 31.4381 -84.9403 176° South 130 150 4,500 -60 Descending Jacksonville Center
09:20AM 31.3986 -84.9347 173° South 128 147 4,500  Level Jacksonville Center
09:21AM 31.3653 -84.9267 168° South 126 145 4,500  Level Jacksonville Center
09:22AM 31.3275 -84.9258 179° South 127 146 4,500  Level Jacksonville Center
09:23AM 31.3006 -84.9253 179° South 124 143 4,600  Climbing Jacksonville Center
09:24AM 31.2650 -84.9194 172° South 123 142 4,600  Level Jacksonville Center
09:25AM 31.2339 -84.9117 168° South 121 139 4,600  Level Jacksonville Center
09:26AM 31.1986 -84.9036 169° South 120 138 4,600  Level Jacksonville Center
09:27AM 31.1694 -84.8933 163° South 118 136 4,600  Level Jacksonville Center
09:29AM 31.1074 -84.8819 171° South  Level FlightAware Approximate
09:36AM 30.8491 -84.8370 172° South  Level FlightAware Approximate
09:37AM 30.8121 -84.8313 172° South  Level FlightAware Approximate
09:38AM 30.7751 -84.8255 172° South  Level FlightAware Approximate
09:39AM 30.7382 -84.8198 172° South  Level FlightAware Approximate
09:40AM 30.7012 -84.8141 172° South  Level FlightAware Approximate
09:41AM 30.6642 -84.8084 172° South  Level FlightAware Approximate
09:42AM 30.6273 -84.8027 172° South  Level FlightAware Approximate
09:43AM 30.5903 -84.7971 172° South  Level FlightAware Approximate
09:43AM 30.6175 -84.8139 172° South 120 138 4,600  Level Jacksonville Center
09:44AM 30.5533 -84.7914 172° South  Level FlightAware Approximate
09:44AM 30.5819 -84.8108 176° South 133 153 4,600  Level Jacksonville Center
09:45AM 30.5163 -84.7857 172° South  Level FlightAware Approximate
09:45AM 30.5464 -84.8078 176° South 133 153 4,500  Level Jacksonville Center
09:46AM 30.4794 -84.7800 172° South  Level FlightAware Approximate
09:46AM 30.5111 -84.7997 169° South 133 153 4,600  Level Jacksonville Center
09:47AM 30.4424 -84.7744 172° South  Level FlightAware Approximate
09:48AM 30.4054 -84.7687 172° South  Level FlightAware Approximate
09:48AM 30.4762 -84.7921 169° South  Level FlightAware Approximate
09:55AM 30.2467 -84.7469 176° South  Level FlightAware Approximate
09:56AM 30.2135 -84.7442 176° South  Level FlightAware Approximate
09:57AM 30.1803 -84.7414 176° South  Level FlightAware Approximate
09:58AM 30.1471 -84.7386 176° South  Level FlightAware Approximate
09:59AM 30.1139 -84.7359 176° South  Level FlightAware Approximate
10:00AM 30.0807 -84.7328 170° South  Level FlightAware Approximate
10:01AM 30.0479 -84.7262 170° South  Level FlightAware Approximate
10:02AM 30.0152 -84.7197 170° South  Level FlightAware Approximate
10:03AM 29.9824 -84.7131 170° South  Level FlightAware Approximate
10:04AM 29.9496 -84.7066 170° South  Level FlightAware Approximate
10:05AM 29.9168 -84.7000 170° South  Level FlightAware Approximate
10:06AM 29.8835 -84.7000 180° South  Level FlightAware Approximate
10:07AM 29.8502 -84.7000 180° South  Level FlightAware Approximate
10:08AM 29.8420 -84.7011 180° South  Level Estimated
10:09AM 29.8420 -84.7011 180° South  Level Estimated
10:10AM 29.8420 -84.7011 180° South  Level Estimated
10:11AM 29.8420 -84.7011 180° South  Level Estimated
10:12AM 29.8420 -84.7011 180° South  Level Estimated
10:13AM 29.8420 -84.7011 180° South  Level Estimated
10:14AM 29.8420 -84.7011 180° South  Level Estimated
10:15AM 29.8420 -84.7011 180° South  Level Estimated
10:16AM 29.8420 -84.7011 180° South  Level Estimated
10:17AM 29.8420 -84.7011 180° South  Level Estimated
10:18AM 29.8420 -84.7011 180° South  Level Estimated
10:19AM 29.8420 -84.7011 180° South  Level Estimated
10:20AM 29.8420 -84.7011 180° South  Level Estimated
10:21AM 29.8420 -84.7011 180° South  Level Estimated
10:22AM 29.8420 -84.7011 180° South  Level Estimated
10:23AM 29.8420 -84.7011 180° South  Level Estimated
10:24AM 29.8420 -84.7011 180° South  Level Estimated